< Cyclone 195207 1952 Season Cyclone 195301 >
Cyclone 195208 (unnamed)
General InformationTrack Information on Google Maps || ResourceGoogle EarthGE AnimationAtom FeedGeoJSON
Detalied Best Track (Time Zone = UTC)
Year Month Day Hour Lat. Long. Pressure (hPa) Wind (kt) Class Image Chart
1952 3 2 12 -14.8 152.7 -1 0 0 -- --
1952 3 2 18 -15.1 153.0 -1 0 0 -- --
1952 3 3 00 -15.5 153.5 -1 0 0 -- --
1952 3 3 06 -16.0 154.1 -1 0 0 -- --
1952 3 3 12 -16.6 154.8 -1 0 0 -- --
1952 3 3 18 -17.1 155.5 -1 0 0 -- --
1952 3 4 00 -17.6 156.2 -1 0 0 -- --
1952 3 4 06 -18.2 157.0 -1 0 0 -- --
1952 3 4 12 -18.9 158.0 -1 0 0 -- --
1952 3 4 18 -19.5 159.0 -1 0 0 -- --
1952 3 5 00 -19.7 160.1 -1 0 0 -- --
1952 3 5 06 -19.4 161.5 -1 0 0 -- --
1952 3 5 12 -19.1 163.0 -1 0 0 -- --
1952 3 5 18 -18.9 164.3 -1 0 0 -- --
1952 3 6 00 -18.8 165.6 -1 0 0 -- --
1952 3 6 06 -18.9 166.6 -1 0 0 -- --
1952 3 6 12 -19.3 167.5 -1 0 0 -- --
1952 3 6 18 -19.9 168.2 -1 0 0 -- --
1952 3 7 00 -20.5 168.7 -1 0 0 -- --
1952 3 7 06 -20.9 168.8 -1 0 0 -- --
1952 3 7 12 -21.3 168.7 -1 0 0 -- --
1952 3 7 18 -21.7 168.4 -1 0 0 -- --
1952 3 8 00 -21.9 168.1 -1 0 0 -- --
1952 3 8 06 -21.7 167.9 -1 0 0 -- --
1952 3 8 12 -21.5 167.7 -1 0 0 -- --
1952 3 8 18 -21.3 167.7 -1 0 0 -- --
1952 3 9 00 -21.1 168.0 -1 0 0 -- --
1952 3 9 06 -21.2 168.5 -1 0 0 -- --
1952 3 9 12 -21.5 169.0 -1 0 0 -- --
1952 3 9 18 -21.8 169.4 -1 0 0 -- --
1952 3 10 00 -22.2 169.8 -1 0 0 -- --
1952 3 10 06 -22.7 170.2 -1 0 0 -- --
1952 3 10 12 -23.2 170.6 -1 0 0 -- --
1952 3 10 18 -23.5 170.9 -1 0 0 -- --
1952 3 11 00 -23.9 171.2 -1 0 0 -- --
1952 3 11 06 -25.3 172.3 -1 0 0 -- --
1952 3 11 12 -26.9 174.0 -1 0 0 -- --
1952 3 11 18 -28.0 175.9 -1 0 0 -- --
1952 3 12 00 -28.9 178.0 -1 0 0 -- --
< Cyclone 195207 1952 Season Cyclone 195301 >

Help